Electric Mills, Mississippi
Current Conditions -  °F | °C
As of 4:56 PM on Saturday 25 Oct 2014 (Local Time) from KNMM Reporting Station
Clear Clear  
Wind Chill: 79°   Ceiling: Unl
Heat Index: 80°   Visibility: 10mi
Dew Point: 58°   Wind: 5mph
Humidity: 48%   Direction: 340°NNW
Pressure: 30.06"   Gusts: NA
Location:  32.8406°N, 88.5164°W
Report Text: KNMM 252156Z AUTO 34004KT 10SM CLR 26/14 A3006 RMK AO2 SLP186 T02610144 $
Loading
Personal Weather Stations






























Interactive Weather Map
Tropical Storm Tracking
New forecast layout! Learn more

10-Day Weather Forecast

Advertisements
Track Severe Weather on mobile